sensor_id;sensor_type;location;lat;lon;timestamp;pressure;altitude;pressure_sealevel;temperature;humidity
58385;BME280;44185;47.844;8.966;2023-08-21T00:01:02;96696.72;;;21.26;100.00
58385;BME280;44185;47.844;8.966;2023-08-21T00:03:28;96696.09;;;21.24;100.00
58385;BME280;44185;47.844;8.966;2023-08-21T00:05:53;96696.19;;;21.31;100.00
58385;BME280;44185;47.844;8.966;2023-08-21T00:08:19;96689.53;;;21.11;100.00
58385;BME280;44185;47.844;8.966;2023-08-21T00:10:44;96685.97;;;21.26;100.00
58385;BME280;44185;47.844;8.966;2023-08-21T00:13:10;96691.75;;;21.23;100.00
58385;BME280;44185;47.844;8.966;2023-08-21T00:15:37;96685.44;;;21.16;100.00
58385;BME280;44185;47.844;8.966;2023-08-21T00:18:04;96690.06;;;21.22;100.00
58385;BME280;44185;47.844;8.966;2023-08-21T00:20:30;96690.00;;;21.15;100.00
58385;BME280;44185;47.844;8.966;2023-08-21T00:22:55;96690.34;;;21.27;100.00
58385;BME280;44185;47.844;8.966;2023-08-21T00:25:21;96677.94;;;21.11;100.00
58385;BME280;44185;47.844;8.966;2023-08-21T00:27:46;96684.81;;;21.14;100.00
58385;BME280;44185;47.844;8.966;2023-08-21T00:30:12;96678.69;;;21.05;100.00
58385;BME280;44185;47.844;8.966;2023-08-21T00:32:37;96676.84;;;21.05;100.00
58385;BME280;44185;47.844;8.966;2023-08-21T00:35:05;96680.63;;;21.11;100.00
58385;BME280;44185;47.844;8.966;2023-08-21T00:37:30;96680.38;;;21.06;100.00
58385;BME280;44185;47.844;8.966;2023-08-21T00:39:55;96677.69;;;21.06;100.00
58385;BME280;44185;47.844;8.966;2023-08-21T00:42:21;96683.53;;;21.09;100.00
58385;BME280;44185;47.844;8.966;2023-08-21T00:44:46;96682.13;;;20.98;100.00
58385;BME280;44185;47.844;8.966;2023-08-21T00:47:12;96673.41;;;20.96;100.00
58385;BME280;44185;47.844;8.966;2023-08-21T00:49:37;96679.06;;;20.86;100.00
58385;BME280;44185;47.844;8.966;2023-08-21T00:52:06;96672.41;;;20.82;100.00
58385;BME280;44185;47.844;8.966;2023-08-21T00:54:33;96675.66;;;20.77;100.00
58385;BME280;44185;47.844;8.966;2023-08-21T00:56:59;96672.75;;;20.79;100.00
58385;BME280;44185;47.844;8.966;2023-08-21T00:59:25;96672.13;;;20.77;100.00
58385;BME280;44185;47.844;8.966;2023-08-21T01:01:51;96671.09;;;20.63;100.00
58385;BME280;44185;47.844;8.966;2023-08-21T01:04:16;96669.63;;;20.60;100.00
58385;BME280;44185;47.844;8.966;2023-08-21T01:06:42;96674.84;;;20.62;100.00
58385;BME280;44185;47.844;8.966;2023-08-21T01:09:14;96671.94;;;20.63;100.00
58385;BME280;44185;47.844;8.966;2023-08-21T01:11:54;96665.28;;;20.59;100.00
58385;BME280;44185;47.844;8.966;2023-08-21T01:14:28;96673.78;;;20.63;100.00
58385;BME280;44185;47.844;8.966;2023-08-21T01:16:56;96678.44;;;20.69;100.00
58385;BME280;44185;47.844;8.966;2023-08-21T01:19:30;96674.63;;;20.63;100.00
58385;BME280;44185;47.844;8.966;2023-08-21T01:24:22;96686.31;;;20.55;100.00
58385;BME280;44185;47.844;8.966;2023-08-21T01:26:48;96684.91;;;20.60;100.00
58385;BME280;44185;47.844;8.966;2023-08-21T01:29:13;96698.16;;;20.31;100.00
58385;BME280;44185;47.844;8.966;2023-08-21T01:31:39;96687.81;;;20.43;100.00
58385;BME280;44185;47.844;8.966;2023-08-21T01:34:08;96694.38;;;20.40;100.00
58385;BME280;44185;47.844;8.966;2023-08-21T01:36:36;96687.31;;;20.39;100.00
58385;BME280;44185;47.844;8.966;2023-08-21T01:39:02;96689.44;;;20.44;100.00
58385;BME280;44185;47.844;8.966;2023-08-21T01:41:29;96690.78;;;20.33;100.00
58385;BME280;44185;47.844;8.966;2023-08-21T01:43:55;96701.59;;;20.25;100.00
58385;BME280;44185;47.844;8.966;2023-08-21T01:46:20;96699.72;;;20.25;100.00
58385;BME280;44185;47.844;8.966;2023-08-21T01:48:46;96694.13;;;20.11;100.00
58385;BME280;44185;47.844;8.966;2023-08-21T01:51:11;96695.53;;;20.22;100.00
58385;BME280;44185;47.844;8.966;2023-08-21T01:53:37;96696.28;;;20.16;100.00
58385;BME280;44185;47.844;8.966;2023-08-21T01:56:02;96695.66;;;20.14;100.00
58385;BME280;44185;47.844;8.966;2023-08-21T01:58:29;96695.03;;;20.04;100.00
58385;BME280;44185;47.844;8.966;2023-08-21T02:00:55;96690.44;;;19.89;100.00
58385;BME280;44185;47.844;8.966;2023-08-21T02:03:20;96688.25;;;19.93;100.00
58385;BME280;44185;47.844;8.966;2023-08-21T02:05:46;96693.72;;;19.99;100.00
58385;BME280;44185;47.844;8.966;2023-08-21T02:08:13;96694.34;;;20.01;100.00
58385;BME280;44185;47.844;8.966;2023-08-21T02:10:47;96683.84;;;19.76;100.00
58385;BME280;44185;47.844;8.966;2023-08-21T02:13:12;96689.22;;;19.76;100.00
58385;BME280;44185;47.844;8.966;2023-08-21T02:15:39;96687.75;;;19.89;100.00
58385;BME280;44185;47.844;8.966;2023-08-21T02:18:05;96686.81;;;19.82;100.00
58385;BME280;44185;47.844;8.966;2023-08-21T02:20:30;96689.22;;;19.76;100.00
58385;BME280;44185;47.844;8.966;2023-08-21T02:22:56;96687.81;;;19.81;100.00
58385;BME280;44185;47.844;8.966;2023-08-21T02:25:21;96687.19;;;19.78;100.00
58385;BME280;44185;47.844;8.966;2023-08-21T02:27:47;96691.91;;;19.76;100.00
58385;BME280;44185;47.844;8.966;2023-08-21T02:30:12;96688.38;;;19.76;100.00
58385;BME280;44185;47.844;8.966;2023-08-21T02:32:39;96685.03;;;19.74;100.00
58385;BME280;44185;47.844;8.966;2023-08-21T02:35:05;96696.31;;;19.69;100.00
58385;BME280;44185;47.844;8.966;2023-08-21T02:37:31;96690.13;;;19.69;100.00
58385;BME280;44185;47.844;8.966;2023-08-21T02:39:56;96692.06;;;19.51;100.00
58385;BME280;44185;47.844;8.966;2023-08-21T02:42:22;96692.91;;;19.52;100.00
58385;BME280;44185;47.844;8.966;2023-08-21T02:44:47;96700.00;;;19.44;100.00
58385;BME280;44185;47.844;8.966;2023-08-21T02:47:13;96698.13;;;19.53;100.00
58385;BME280;44185;47.844;8.966;2023-08-21T02:49:40;96703.09;;;19.56;100.00
58385;BME280;44185;47.844;8.966;2023-08-21T02:52:05;96699.41;;;19.58;100.00
58385;BME280;44185;47.844;8.966;2023-08-21T02:54:31;96699.22;;;19.59;100.00
58385;BME280;44185;47.844;8.966;2023-08-21T02:56:56;96701.44;;;19.55;100.00
58385;BME280;44185;47.844;8.966;2023-08-21T02:59:21;96699.59;;;19.56;100.00
58385;BME280;44185;47.844;8.966;2023-08-21T03:01:47;96698.16;;;19.69;100.00
58385;BME280;44185;47.844;8.966;2023-08-21T03:04:12;96701.84;;;19.67;100.00
58385;BME280;44185;47.844;8.966;2023-08-21T03:06:39;96695.53;;;19.60;100.00
58385;BME280;44185;47.844;8.966;2023-08-21T03:09:04;96696.84;;;19.64;100.00
58385;BME280;44185;47.844;8.966;2023-08-21T03:11:30;96694.03;;;19.58;100.00
58385;BME280;44185;47.844;8.966;2023-08-21T03:13:55;96701.44;;;19.55;100.00
58385;BME280;44185;47.844;8.966;2023-08-21T03:16:21;96697.22;;;19.61;100.00
58385;BME280;44185;47.844;8.966;2023-08-21T03:18:57;96693.19;;;19.57;100.00
58385;BME280;44185;47.844;8.966;2023-08-21T03:21:22;96690.06;;;19.53;100.00
58385;BME280;44185;47.844;8.966;2023-08-21T03:23:50;96696.47;;;19.44;100.00
58385;BME280;44185;47.844;8.966;2023-08-21T03:26:15;96689.28;;;19.44;100.00
58385;BME280;44185;47.844;8.966;2023-08-21T03:28:41;96692.75;;;19.53;100.00
58385;BME280;44185;47.844;8.966;2023-08-21T03:31:06;96702.81;;;19.51;100.00
58385;BME280;44185;47.844;8.966;2023-08-21T03:33:31;96698.97;;;19.45;100.00
58385;BME280;44185;47.844;8.966;2023-08-21T03:35:57;96695.69;;;19.35;100.00
58385;BME280;44185;47.844;8.966;2023-08-21T03:38:22;96698.56;;;19.33;100.00
58385;BME280;44185;47.844;8.966;2023-08-21T03:40:49;96696.06;;;19.32;100.00
58385;BME280;44185;47.844;8.966;2023-08-21T03:43:14;96686.22;;;19.24;100.00
58385;BME280;44185;47.844;8.966;2023-08-21T03:45:40;96688.94;;;19.07;100.00
58385;BME280;44185;47.844;8.966;2023-08-21T03:48:05;96697.00;;;19.07;100.00
58385;BME280;44185;47.844;8.966;2023-08-21T03:50:31;96697.13;;;19.14;100.00
58385;BME280;44185;47.844;8.966;2023-08-21T03:52:56;96703.31;;;19.23;100.00
58385;BME280;44185;47.844;8.966;2023-08-21T03:55:22;96700.94;;;19.28;100.00
58385;BME280;44185;47.844;8.966;2023-08-21T03:57:48;96708.03;;;19.12;100.00
58385;BME280;44185;47.844;8.966;2023-08-21T04:00:14;96702.63;;;18.89;100.00
58385;BME280;44185;47.844;8.966;2023-08-21T04:02:39;96710.66;;;18.89;100.00
58385;BME280;44185;47.844;8.966;2023-08-21T04:05:05;96713.03;;;18.84;100.00
58385;BME280;44185;47.844;8.966;2023-08-21T04:07:30;96711.00;;;18.86;100.00
58385;BME280;44185;47.844;8.966;2023-08-21T04:09:56;96707.63;;;18.92;100.00
58385;BME280;44185;47.844;8.966;2023-08-21T04:12:21;96705.41;;;18.96;100.00
58385;BME280;44185;47.844;8.966;2023-08-21T04:14:48;96706.44;;;18.95;100.00
58385;BME280;44185;47.844;8.966;2023-08-21T04:17:13;96713.97;;;18.99;100.00
58385;BME280;44185;47.844;8.966;2023-08-21T04:19:39;96720.97;;;19.00;100.00
58385;BME280;44185;47.844;8.966;2023-08-21T04:22:04;96719.31;;;18.99;100.00
58385;BME280;44185;47.844;8.966;2023-08-21T04:24:30;96720.56;;;18.80;100.00
58385;BME280;44185;47.844;8.966;2023-08-21T04:26:55;96721.94;;;18.67;100.00
58385;BME280;44185;47.844;8.966;2023-08-21T04:29:20;96723.97;;;18.65;100.00
58385;BME280;44185;47.844;8.966;2023-08-21T04:31:47;96726.16;;;18.62;100.00
58385;BME280;44185;47.844;8.966;2023-08-21T04:34:13;96723.81;;;18.59;100.00
58385;BME280;44185;47.844;8.966;2023-08-21T04:36:38;96725.97;;;18.63;100.00
58385;BME280;44185;47.844;8.966;2023-08-21T04:39:04;96728.81;;;18.70;100.00
58385;BME280;44185;47.844;8.966;2023-08-21T04:41:29;96729.47;;;18.72;100.00
58385;BME280;44185;47.844;8.966;2023-08-21T04:43:55;96721.25;;;18.74;100.00
58385;BME280;44185;47.844;8.966;2023-08-21T04:46:20;96731.31;;;18.72;100.00
58385;BME280;44185;47.844;8.966;2023-08-21T04:48:47;96733.50;;;18.76;100.00
58385;BME280;44185;47.844;8.966;2023-08-21T04:51:13;96734.25;;;18.94;100.00
58385;BME280;44185;47.844;8.966;2023-08-21T04:53:38;96737.25;;;18.99;100.00
58385;BME280;44185;47.844;8.966;2023-08-21T04:56:04;96745.66;;;18.96;100.00
58385;BME280;44185;47.844;8.966;2023-08-21T04:58:29;96739.25;;;19.05;100.00
58385;BME280;44185;47.844;8.966;2023-08-21T05:00:55;96741.94;;;19.05;100.00
58385;BME280;44185;47.844;8.966;2023-08-21T05:03:20;96743.78;;;19.05;100.00
58385;BME280;44185;47.844;8.966;2023-08-21T05:05:53;96753.63;;;19.12;100.00
58385;BME280;44185;47.844;8.966;2023-08-21T05:08:19;96758.34;;;19.10;100.00
58385;BME280;44185;47.844;8.966;2023-08-21T05:10:45;96757.16;;;19.13;100.00
58385;BME280;44185;47.844;8.966;2023-08-21T05:13:10;96758.34;;;19.10;100.00
58385;BME280;44185;47.844;8.966;2023-08-21T05:15:36;96760.41;;;19.00;100.00
58385;BME280;44185;47.844;8.966;2023-08-21T05:18:01;96765.88;;;19.07;100.00
58385;BME280;44185;47.844;8.966;2023-08-21T05:20:27;96760.50;;;19.15;100.00
58385;BME280;44185;47.844;8.966;2023-08-21T05:22:53;96763.78;;;19.34;100.00
58385;BME280;44185;47.844;8.966;2023-08-21T05:25:19;96767.00;;;19.61;100.00
58385;BME280;44185;47.844;8.966;2023-08-21T05:27:44;96763.50;;;19.84;100.00
58385;BME280;44185;47.844;8.966;2023-08-21T05:30:10;96768.06;;;19.99;100.00
58385;BME280;44185;47.844;8.966;2023-08-21T05:32:36;96768.91;;;19.99;100.00
58385;BME280;44185;47.844;8.966;2023-08-21T05:35:01;96769.28;;;20.20;100.00
58385;BME280;44185;47.844;8.966;2023-08-21T05:37:26;96771.97;;;20.43;100.00
58385;BME280;44185;47.844;8.966;2023-08-21T05:39:53;96760.53;;;20.41;100.00
58385;BME280;44185;47.844;8.966;2023-08-21T05:42:19;96763.84;;;20.67;100.00
58385;BME280;44185;47.844;8.966;2023-08-21T05:44:44;96767.94;;;20.78;100.00
58385;BME280;44185;47.844;8.966;2023-08-21T05:47:10;96763.09;;;20.88;100.00
58385;BME280;44185;47.844;8.966;2023-08-21T05:49:35;96761.91;;;21.06;100.00
58385;BME280;44185;47.844;8.966;2023-08-21T05:52:01;96768.00;;;21.30;100.00
58385;BME280;44185;47.844;8.966;2023-08-21T05:54:26;96774.94;;;21.55;100.00
58385;BME280;44185;47.844;8.966;2023-08-21T05:56:53;96774.09;;;21.76;100.00
58385;BME280;44185;47.844;8.966;2023-08-21T05:59:26;96775.75;;;21.93;100.00
58385;BME280;44185;47.844;8.966;2023-08-21T06:01:52;96779.41;;;22.07;100.00
58385;BME280;44185;47.844;8.966;2023-08-21T06:04:17;96775.75;;;22.37;100.00
58385;BME280;44185;47.844;8.966;2023-08-21T06:06:43;96779.06;;;22.39;100.00
58385;BME280;44185;47.844;8.966;2023-08-21T06:09:08;96783.69;;;22.45;100.00
58385;BME280;44185;47.844;8.966;2023-08-21T06:11:34;96781.91;;;22.59;100.00
58385;BME280;44185;47.844;8.966;2023-08-21T06:14:01;96782.41;;;22.70;100.00
58385;BME280;44185;47.844;8.966;2023-08-21T06:16:26;96781.00;;;23.03;100.00
58385;BME280;44185;47.844;8.966;2023-08-21T06:18:51;96779.38;;;23.15;100.00
58385;BME280;44185;47.844;8.966;2023-08-21T06:21:17;96784.91;;;23.42;100.00
58385;BME280;44185;47.844;8.966;2023-08-21T06:23:43;96789.78;;;23.54;100.00
58385;BME280;44185;47.844;8.966;2023-08-21T06:26:08;96791.25;;;23.63;100.00
58385;BME280;44185;47.844;8.966;2023-08-21T06:28:34;96797.72;;;23.76;100.00
58385;BME280;44185;47.844;8.966;2023-08-21T06:31:00;96799.88;;;24.08;98.75
58385;BME280;44185;47.844;8.966;2023-08-21T06:33:26;96805.13;;;24.37;97.19
58385;BME280;44185;47.844;8.966;2023-08-21T06:35:51;96798.88;;;24.63;95.00
58385;BME280;44185;47.844;8.966;2023-08-21T06:38:17;96803.25;;;24.64;93.42
58385;BME280;44185;47.844;8.966;2023-08-21T06:40:44;96804.91;;;24.79;93.24
58385;BME280;44185;47.844;8.966;2023-08-21T06:43:10;96797.25;;;24.49;95.02
58385;BME280;44185;47.844;8.966;2023-08-21T06:45:35;96803.88;;;24.53;94.65
58385;BME280;44185;47.844;8.966;2023-08-21T06:48:02;96803.91;;;24.73;93.40
58385;BME280;44185;47.844;8.966;2023-08-21T06:50:28;96799.91;;;24.90;91.90
58385;BME280;44185;47.844;8.966;2023-08-21T06:52:53;96804.06;;;24.85;91.69
58385;BME280;44185;47.844;8.966;2023-08-21T06:55:19;96809.25;;;25.21;90.54
58385;BME280;44185;47.844;8.966;2023-08-21T06:57:44;96812.44;;;25.57;87.58
58385;BME280;44185;47.844;8.966;2023-08-21T07:00:10;96801.69;;;25.83;86.50
58385;BME280;44185;47.844;8.966;2023-08-21T07:02:36;96809.09;;;26.08;84.97
58385;BME280;44185;47.844;8.966;2023-08-21T07:05:03;96809.50;;;25.59;86.50
58385;BME280;44185;47.844;8.966;2023-08-21T07:07:29;96809.50;;;25.59;86.92
58385;BME280;44185;47.844;8.966;2023-08-21T07:09:54;96812.97;;;25.86;86.02
58385;BME280;44185;47.844;8.966;2023-08-21T07:12:21;96809.16;;;26.27;84.21
58385;BME280;44185;47.844;8.966;2023-08-21T07:14:47;96808.69;;;26.62;82.31
58385;BME280;44185;47.844;8.966;2023-08-21T07:17:12;96811.56;;;26.93;81.17
58385;BME280;44185;47.844;8.966;2023-08-21T07:19:38;96813.91;;;27.08;78.50
58385;BME280;44185;47.844;8.966;2023-08-21T07:22:04;96815.88;;;26.75;80.61
58385;BME280;44185;47.844;8.966;2023-08-21T07:24:30;96812.09;;;26.58;81.83
58385;BME280;44185;47.844;8.966;2023-08-21T07:26:55;96809.94;;;26.67;80.33
58385;BME280;44185;47.844;8.966;2023-08-21T07:29:21;96816.19;;;26.35;81.82
58385;BME280;44185;47.844;8.966;2023-08-21T07:31:46;96807.94;;;26.23;82.67
58385;BME280;44185;47.844;8.966;2023-08-21T07:34:12;96808.06;;;26.35;82.68
58385;BME280;44185;47.844;8.966;2023-08-21T07:36:37;96811.47;;;26.56;81.32
58385;BME280;44185;47.844;8.966;2023-08-21T07:39:04;96812.47;;;26.29;81.46
58385;BME280;44185;47.844;8.966;2023-08-21T07:41:29;96810.78;;;26.35;80.88
58385;BME280;44185;47.844;8.966;2023-08-21T07:43:55;96808.50;;;26.31;80.64
58385;BME280;44185;47.844;8.966;2023-08-21T07:46:20;96814.69;;;26.39;81.83
58385;BME280;44185;47.844;8.966;2023-08-21T07:48:45;96808.66;;;26.37;81.60
58385;BME280;44185;47.844;8.966;2023-08-21T07:51:11;96811.00;;;26.84;80.08
58385;BME280;44185;47.844;8.966;2023-08-21T07:53:37;96809.06;;;27.10;78.65
58385;BME280;44185;47.844;8.966;2023-08-21T07:56:04;96813.91;;;27.08;76.80
58385;BME280;44185;47.844;8.966;2023-08-21T07:58:30;96814.69;;;27.16;77.12
58385;BME280;44185;47.844;8.966;2023-08-21T08:00:56;96813.66;;;27.36;76.75
58385;BME280;44185;47.844;8.966;2023-08-21T08:03:21;96807.03;;;27.06;78.30
58385;BME280;44185;47.844;8.966;2023-08-21T08:05:46;96812.44;;;27.31;76.06
58385;BME280;44185;47.844;8.966;2023-08-21T08:08:12;96816.97;;;27.19;76.18
58385;BME280;44185;47.844;8.966;2023-08-21T08:10:38;96815.47;;;27.23;75.69
58385;BME280;44185;47.844;8.966;2023-08-21T08:13:05;96809.53;;;27.07;76.52
58385;BME280;44185;47.844;8.966;2023-08-21T08:15:31;96814.50;;;27.10;76.13
58385;BME280;44185;47.844;8.966;2023-08-21T08:17:57;96805.09;;;27.13;77.73
58385;BME280;44185;47.844;8.966;2023-08-21T08:20:23;96806.94;;;27.19;76.78
58385;BME280;44185;47.844;8.966;2023-08-21T08:22:48;96810.25;;;27.59;74.51
58385;BME280;44185;47.844;8.966;2023-08-21T08:25:14;96811.53;;;27.57;76.24
58385;BME280;44185;47.844;8.966;2023-08-21T08:27:39;96811.34;;;27.89;73.37
58385;BME280;44185;47.844;8.966;2023-08-21T08:30:07;96811.16;;;27.34;75.34
58385;BME280;44185;47.844;8.966;2023-08-21T08:32:34;96805.56;;;27.29;75.49
58385;BME280;44185;47.844;8.966;2023-08-21T08:34:59;96806.91;;;27.76;74.78
58385;BME280;44185;47.844;8.966;2023-08-21T08:37:25;96807.03;;;28.00;73.17
58385;BME280;44185;47.844;8.966;2023-08-21T08:39:50;96809.31;;;28.15;71.97
58385;BME280;44185;47.844;8.966;2023-08-21T08:42:16;96808.25;;;27.85;73.65
58385;BME280;44185;47.844;8.966;2023-08-21T08:44:42;96808.13;;;27.80;73.87
58385;BME280;44185;47.844;8.966;2023-08-21T08:47:10;96811.44;;;27.82;73.53
58385;BME280;44185;47.844;8.966;2023-08-21T08:49:36;96804.78;;;27.78;75.00
58385;BME280;44185;47.844;8.966;2023-08-21T08:52:02;96807.00;;;27.50;75.32
58385;BME280;44185;47.844;8.966;2023-08-21T08:54:29;96805.69;;;27.72;74.10
58385;BME280;44185;47.844;8.966;2023-08-21T08:56:55;96805.47;;;28.04;72.79
58385;BME280;44185;47.844;8.966;2023-08-21T08:59:20;96810.81;;;28.11;73.21
58385;BME280;44185;47.844;8.966;2023-08-21T09:01:46;96807.91;;;27.63;73.67
58385;BME280;44185;47.844;8.966;2023-08-21T09:04:13;96800.81;;;27.93;74.52
58385;BME280;44185;47.844;8.966;2023-08-21T09:06:38;96801.19;;;27.96;72.59
58385;BME280;44185;47.844;8.966;2023-08-21T09:09:04;96796.34;;;27.98;72.00
58385;BME280;44185;47.844;8.966;2023-08-21T09:11:30;96801.34;;;28.02;71.51
58385;BME280;44185;47.844;8.966;2023-08-21T09:13:58;96790.19;;;28.34;71.54
58385;BME280;44185;47.844;8.966;2023-08-21T09:16:24;96806.00;;;28.13;71.56
58385;BME280;44185;47.844;8.966;2023-08-21T09:18:51;96802.38;;;28.43;71.15
58385;BME280;44185;47.844;8.966;2023-08-21T09:21:18;96793.44;;;28.12;72.47
58385;BME280;44185;47.844;8.966;2023-08-21T09:23:43;96796.69;;;27.90;72.56
58385;BME280;44185;47.844;8.966;2023-08-21T09:26:09;96793.84;;;28.28;73.17
58385;BME280;44185;47.844;8.966;2023-08-21T09:28:34;96793.66;;;28.53;70.71
58385;BME280;44185;47.844;8.966;2023-08-21T09:31:00;96799.47;;;28.45;69.57
58385;BME280;44185;47.844;8.966;2023-08-21T09:33:25;96799.38;;;28.21;68.21
58385;BME280;44185;47.844;8.966;2023-08-21T09:35:51;96799.47;;;28.14;68.17
58385;BME280;44185;47.844;8.966;2023-08-21T09:38:19;96788.38;;;28.28;69.90
58385;BME280;44185;47.844;8.966;2023-08-21T09:40:51;96797.47;;;28.52;70.19
58385;BME280;44185;47.844;8.966;2023-08-21T09:43:16;96785.03;;;28.57;69.39
58385;BME280;44185;47.844;8.966;2023-08-21T09:45:46;96792.09;;;28.46;66.08
58385;BME280;44185;47.844;8.966;2023-08-21T09:48:12;96788.59;;;28.57;67.96
58385;BME280;44185;47.844;8.966;2023-08-21T09:50:38;96787.97;;;28.91;67.48
58385;BME280;44185;47.844;8.966;2023-08-21T09:53:06;96779.69;;;29.22;67.71
58385;BME280;44185;47.844;8.966;2023-08-21T09:55:33;96789.41;;;29.30;66.56
58385;BME280;44185;47.844;8.966;2023-08-21T09:57:59;96783.84;;;29.13;65.57
58385;BME280;44185;47.844;8.966;2023-08-21T10:00:28;96785.84;;;29.05;65.91
58385;BME280;44185;47.844;8.966;2023-08-21T10:02:55;96770.81;;;29.15;65.70
58385;BME280;44185;47.844;8.966;2023-08-21T10:05:23;96778.81;;;29.34;64.79
58385;BME280;44185;47.844;8.966;2023-08-21T10:07:49;96778.72;;;29.40;63.98
58385;BME280;44185;47.844;8.966;2023-08-21T10:10:15;96776.56;;;29.30;63.69
58385;BME280;44185;47.844;8.966;2023-08-21T10:12:43;96776.03;;;29.58;63.39
58385;BME280;44185;47.844;8.966;2023-08-21T10:15:09;96769.22;;;29.43;63.28
58385;BME280;44185;47.844;8.966;2023-08-21T10:17:35;96762.41;;;29.58;63.21
58385;BME280;44185;47.844;8.966;2023-08-21T10:20:02;96763.06;;;29.65;61.76
58385;BME280;44185;47.844;8.966;2023-08-21T10:22:42;96758.94;;;29.74;61.19
58385;BME280;44185;47.844;8.966;2023-08-21T10:25:15;96764.25;;;29.69;61.67
58385;BME280;44185;47.844;8.966;2023-08-21T10:27:40;96760.69;;;29.69;60.86
58385;BME280;44185;47.844;8.966;2023-08-21T10:30:13;96757.97;;;29.69;60.55
58385;BME280;44185;47.844;8.966;2023-08-21T10:32:44;96750.69;;;29.86;60.83
58385;BME280;44185;47.844;8.966;2023-08-21T10:35:14;96760.88;;;29.91;60.42
58385;BME280;44185;47.844;8.966;2023-08-21T10:38:05;96748.75;;;29.99;59.92
58385;BME280;44185;47.844;8.966;2023-08-21T10:40:31;96753.00;;;29.65;61.01
58385;BME280;44185;47.844;8.966;2023-08-21T10:42:56;96753.09;;;29.83;61.24
58385;BME280;44185;47.844;8.966;2023-08-21T10:45:23;96751.66;;;30.09;61.06
58385;BME280;44185;47.844;8.966;2023-08-21T10:47:48;96743.50;;;29.97;62.26
58385;BME280;44185;47.844;8.966;2023-08-21T10:50:14;96750.63;;;30.16;62.27
58385;BME280;44185;47.844;8.966;2023-08-21T10:52:41;96737.75;;;29.94;60.46
58385;BME280;44185;47.844;8.966;2023-08-21T10:55:07;96737.81;;;30.16;60.82
58385;BME280;44185;47.844;8.966;2023-08-21T10:57:33;96745.88;;;29.77;61.05
58385;BME280;44185;47.844;8.966;2023-08-21T11:00:00;96740.13;;;29.90;61.00
58385;BME280;44185;47.844;8.966;2023-08-21T11:02:28;96743.44;;;30.27;59.49
58385;BME280;44185;47.844;8.966;2023-08-21T11:04:54;96748.75;;;30.16;60.33
58385;BME280;44185;47.844;8.966;2023-08-21T11:07:20;96735.50;;;30.08;59.32
58385;BME280;44185;47.844;8.966;2023-08-21T11:09:46;96732.81;;;30.42;59.84
58385;BME280;44185;47.844;8.966;2023-08-21T11:12:13;96741.66;;;30.50;58.24
58385;BME280;44185;47.844;8.966;2023-08-21T11:14:39;96742.06;;;30.59;58.47
58385;BME280;44185;47.844;8.966;2023-08-21T11:17:05;96741.34;;;30.46;58.77
58385;BME280;44185;47.844;8.966;2023-08-21T11:19:33;96744.13;;;30.34;57.40
58385;BME280;44185;47.844;8.966;2023-08-21T11:21:59;96730.56;;;30.39;57.57
58385;BME280;44185;47.844;8.966;2023-08-21T11:24:30;96738.19;;;30.37;56.90
58385;BME280;44185;47.844;8.966;2023-08-21T11:26:55;96730.56;;;30.39;57.85
58385;BME280;44185;47.844;8.966;2023-08-21T11:29:21;96733.22;;;30.51;57.23
58385;BME280;44185;47.844;8.966;2023-08-21T11:31:46;96737.38;;;30.77;54.78
58385;BME280;44185;47.844;8.966;2023-08-21T11:34:18;96732.28;;;30.63;55.21
58385;BME280;44185;47.844;8.966;2023-08-21T11:36:45;96725.13;;;30.79;54.77
58385;BME280;44185;47.844;8.966;2023-08-21T11:39:10;96724.06;;;30.80;53.69
58385;BME280;44185;47.844;8.966;2023-08-21T11:41:54;96722.41;;;30.96;55.76
58385;BME280;44185;47.844;8.966;2023-08-21T11:44:19;96713.06;;;31.15;54.29
58385;BME280;44185;47.844;8.966;2023-08-21T11:46:45;96713.25;;;31.30;52.24
58385;BME280;44185;47.844;8.966;2023-08-21T11:49:10;96713.94;;;31.21;51.41
58385;BME280;44185;47.844;8.966;2023-08-21T11:51:38;96713.81;;;31.10;51.69
58385;BME280;44185;47.844;8.966;2023-08-21T11:54:05;96720.53;;;31.47;50.63
58385;BME280;44185;47.844;8.966;2023-08-21T11:56:31;96710.09;;;31.44;48.51
58385;BME280;44185;47.844;8.966;2023-08-21T11:58:56;96726.00;;;31.47;46.95
58385;BME280;44185;47.844;8.966;2023-08-21T12:01:22;96719.06;;;31.62;47.67
58385;BME280;44185;47.844;8.966;2023-08-21T12:03:47;96717.63;;;31.82;47.96
58385;BME280;44185;47.844;8.966;2023-08-21T12:06:13;96712.97;;;32.10;45.50
58385;BME280;44185;47.844;8.966;2023-08-21T12:08:40;96709.84;;;32.29;45.04
58385;BME280;44185;47.844;8.966;2023-08-21T12:11:07;96706.19;;;32.18;41.63
58385;BME280;44185;47.844;8.966;2023-08-21T12:13:32;96706.25;;;31.95;42.20
58385;BME280;44185;47.844;8.966;2023-08-21T12:16:00;96707.94;;;32.02;40.40
58385;BME280;44185;47.844;8.966;2023-08-21T12:18:25;96706.41;;;31.83;44.65
58385;BME280;44185;47.844;8.966;2023-08-21T12:20:51;96703.56;;;32.01;40.75
58385;BME280;44185;47.844;8.966;2023-08-21T12:23:16;96691.53;;;32.02;49.48
58385;BME280;44185;47.844;8.966;2023-08-21T12:25:42;96692.75;;;31.83;50.12
58385;BME280;44185;47.844;8.966;2023-08-21T12:28:11;96692.66;;;31.73;50.70
58385;BME280;44185;47.844;8.966;2023-08-21T12:30:37;96696.78;;;31.75;50.53
58385;BME280;44185;47.844;8.966;2023-08-21T12:33:03;96690.44;;;31.70;51.81
58385;BME280;44185;47.844;8.966;2023-08-21T12:35:28;96692.22;;;31.86;51.55
58385;BME280;44185;47.844;8.966;2023-08-21T12:37:56;96691.03;;;31.77;50.66
58385;BME280;44185;47.844;8.966;2023-08-21T12:40:24;96684.34;;;31.90;50.82
58385;BME280;44185;47.844;8.966;2023-08-21T12:42:50;96687.81;;;32.13;50.64
58385;BME280;44185;47.844;8.966;2023-08-21T12:45:17;96676.78;;;32.41;50.04
58385;BME280;44185;47.844;8.966;2023-08-21T12:47:42;96671.50;;;32.29;50.24
58385;BME280;44185;47.844;8.966;2023-08-21T12:50:08;96672.28;;;32.19;50.06
58385;BME280;44185;47.844;8.966;2023-08-21T12:52:34;96671.56;;;32.06;48.77